This is the latest recevied weather packets stored in our database for station/object GW7287. If no packets are shown the sender has not sent any weather packets the latest 10 day(s).
| Time | Temp. | Humidity | Pressure | Rain* | Wind** | Luminosity | Snow |
|---|---|---|---|---|---|---|---|
| 1778280422 | 11.67° C | 81% | 925.8 hPa | - | - | - | - |
| 1778277302 | 12.22° C | 79% | 925.9 hPa | - | - | - | - |
| 1778277108 | 12.22° C | 79% | 925.9 hPa | - | - | - | - |
| 1778273609 | 12.78° C | 72% | 925.4 hPa | - | - | - | - |
| 1778273316 | 12.78° C | 72% | 925.4 hPa | - | - | - | - |
| 1778269966 | 14.44° C | 60% | 924.8 hPa | - | - | - | - |
| 1778267135 | 15.56° C | 49% | 924.6 hPa | - | - | - | - |
| 1778263562 | 16.67° C | 52% | 924.4 hPa | - | - | - | - |
| 1778259844 | 16.11° C | 60% | 924.4 hPa | - | - | - | - |
| 1778259005 | 16.11° C | 60% | 924.4 hPa | - | - | - | - |
| 1778258820 | 16.11° C | 60% | 924.4 hPa | - | - | - | - |
| 1778258598 | 16.11° C | 60% | 924.4 hPa | - | - | - | - |
| 1778253273 | 15.56° C | 68% | 924.9 hPa | - | - | - | - |
| 1778252834 | 15.56° C | 68% | 924.9 hPa | - | - | - | - |
| 1778246342 | 13.89° C | 66% | 925.4 hPa | - | - | - | - |
| 1778245838 | 13.89° C | 66% | 925.4 hPa | - | - | - | - |
| 1778241126 | 11.67° C | 79% | 925.9 hPa | - | - | - | - |
| 1778238246 | 13.33° C | 75% | 926 hPa | - | - | - | - |
| 1778235638 | 11.67° C | 75% | 925.6 hPa | - | - | - | - |
| 1778231203 | 10° C | 82% | 925.3 hPa | - | - | - | - |
| 1778230453 | 10° C | 82% | 925.3 hPa | - | - | - | - |
| 1778224650 | 8.89° C | 81% | 924.8 hPa | - | - | - | - |
| 1778223853 | 8.89° C | 81% | 924.8 hPa | - | - | - | - |
| 1778217931 | 9.44° C | 79% | 924.6 hPa | - | - | - | - |
| 1778217822 | 9.44° C | 79% | 924.6 hPa | - | - | - | - |
* Rain since midnight (hover to see other rain measurements)
** Current wind speed in m/s (hover to see current wind gust speed)